Time;durP1;ratioP1;P1;durP2;ratioP2;P2;SDS_P1;SDS_P2;PMS_P1;PMS_P2;Temp;Humidity;BMP_temperature;BMP_pressure;BME280_temperature;BME280_humidity;BME280_pressure;Samples;Min_cycle;Max_cycle;Signal;HPM_P1;HPM_P2
2021/10/27 00:01:21;;;;;;;46.33;37.40;;;9.60;99.90;;;;;;5061554;28;20484;-51
2021/10/27 00:03:47;;;;;;;49.95;37.15;;;9.60;99.90;;;;;;5058643;28;20067;-52
2021/10/27 00:06:13;;;;;;;51.08;37.72;;;9.60;99.90;;;;;;5061148;28;20091;-55
2021/10/27 00:08:39;;;;;;;49.95;37.72;;;9.60;99.90;;;;;;5065740;28;20048;-49
2021/10/27 00:11:05;;;;;;;51.05;39.72;;;9.60;99.90;;;;;;5057801;28;20036;-55
2021/10/27 00:13:30;;;;;;;51.20;39.75;;;9.70;99.90;;;;;;5077039;28;20032;-54
2021/10/27 00:15:56;;;;;;;45.72;32.15;;;9.70;99.90;;;;;;5065576;28;20056;-52
2021/10/27 00:18:22;;;;;;;48.17;33.13;;;9.70;99.90;;;;;;5041481;28;20064;-52
2021/10/27 00:20:48;;;;;;;45.25;37.25;;;9.80;99.90;;;;;;5064782;28;20036;-51
2021/10/27 00:23:14;;;;;;;43.78;32.72;;;9.80;99.90;;;;;;5065519;28;20037;-48
2021/10/27 00:25:39;;;;;;;50.00;36.97;;;9.80;99.90;;;;;;5063588;28;20045;-53
2021/10/27 00:28:05;;;;;;;49.53;37.05;;;9.70;99.90;;;;;;5065029;28;20025;-53
2021/10/27 00:30:31;;;;;;;49.75;32.50;;;9.70;99.90;;;;;;5063739;28;20051;-51
2021/10/27 00:32:57;;;;;;;41.55;33.53;;;9.70;99.90;;;;;;5064836;28;20051;-53
2021/10/27 00:35:23;;;;;;;45.05;36.42;;;9.70;99.90;;;;;;5070030;28;20103;-54
2021/10/27 00:37:49;;;;;;;46.15;36.03;;;9.70;99.90;;;;;;5046008;28;20041;-55
2021/10/27 00:40:15;;;;;;;59.15;43.85;;;9.60;99.90;;;;;;5064828;28;20036;-54
2021/10/27 00:42:41;;;;;;;86.80;67.63;;;9.40;99.90;;;;;;5067417;28;20484;-53
2021/10/27 00:45:07;;;;;;;102.43;76.82;;;9.20;99.90;;;;;;5069323;28;20032;-52
2021/10/27 00:47:33;;;;;;;79.18;63.08;;;9.20;99.90;;;;;;5003076;28;20504;-53
2021/10/27 00:49:59;;;;;;;69.55;53.58;;;9.20;99.90;;;;;;5064428;28;20036;-52
2021/10/27 00:52:25;;;;;;;65.22;48.45;;;9.20;99.90;;;;;;5039576;28;20404;-54
2021/10/27 00:54:52;;;;;;;58.65;47.25;;;8.80;99.90;;;;;;5069399;28;20063;-55
2021/10/27 00:57:21;;;;;;;61.58;49.28;;;8.70;99.90;;;;;;5061916;28;20029;-49
2021/10/27 00:59:47;;;;;;;66.07;47.90;;;8.60;99.90;;;;;;5056578;28;20074;-54
2021/10/27 01:02:16;;;;;;;55.80;45.67;;;8.70;99.90;;;;;;5066282;28;20036;-51
2021/10/27 01:04:42;;;;;;;53.95;40.42;;;8.60;99.90;;;;;;5061747;28;20037;-54
2021/10/27 01:07:09;;;;;;;59.20;40.40;;;8.60;99.90;;;;;;5067559;28;20477;-50
2021/10/27 01:09:36;;;;;;;53.60;38.67;;;8.50;99.90;;;;;;5063555;28;20428;-54
2021/10/27 01:12:03;;;;;;;48.88;38.17;;;8.40;99.90;;;;;;5067612;28;20033;-51
2021/10/27 01:14:43;;;;;;;54.42;37.75;;;8.40;99.90;;;;;;5062262;28;20020;-51
2021/10/27 01:17:11;;;;;;;49.72;35.30;;;8.50;99.90;;;;;;5061160;28;20029;-54
2021/10/27 01:19:44;;;;;;;50.38;34.47;;;8.50;99.90;;;;;;5066596;28;20033;-50
2021/10/27 01:22:10;;;;;;;43.30;33.30;;;8.70;99.90;;;;;;5064891;28;20033;-50
2021/10/27 01:24:36;;;;;;;42.97;35.13;;;8.80;99.90;;;;;;5063164;28;20127;-54
2021/10/27 01:27:03;;;;;;;41.85;32.30;;;9.10;99.90;;;;;;5065115;28;20045;-54
2021/10/27 01:29:28;;;;;;;43.70;32.00;;;9.10;99.90;;;;;;5019976;28;20063;-51
2021/10/27 01:31:54;;;;;;;47.33;34.90;;;9.10;99.90;;;;;;5068718;28;20052;-54
2021/10/27 01:34:20;;;;;;;41.67;32.35;;;9.20;99.90;;;;;;5065186;28;20033;-56
2021/10/27 01:36:45;;;;;;;42.47;33.08;;;9.30;99.90;;;;;;5062919;28;20041;-55
2021/10/27 01:39:11;;;;;;;40.42;33.17;;;9.30;99.90;;;;;;5068798;28;20044;-51
2021/10/27 01:41:37;;;;;;;40.97;32.33;;;9.30;99.90;;;;;;5073872;28;20029;-51
2021/10/27 01:44:03;;;;;;;42.60;32.67;;;9.30;99.90;;;;;;5064233;28;20037;-50
2021/10/27 01:46:31;;;;;;;41.13;32.20;;;9.30;99.90;;;;;;5045123;28;20498;-49
2021/10/27 01:48:58;;;;;;;43.15;33.63;;;9.30;99.90;;;;;;5052272;28;20131;-54
2021/10/27 01:51:25;;;;;;;43.05;34.72;;;9.30;99.90;;;;;;5068933;28;20020;-55
2021/10/27 01:53:52;;;;;;;43.25;33.78;;;9.30;99.90;;;;;;5061285;28;20036;-55
2021/10/27 01:56:20;;;;;;;37.80;30.13;;;9.40;99.90;;;;;;5061938;28;20063;-57
2021/10/27 01:58:46;;;;;;;42.15;32.40;;;9.40;99.90;;;;;;5068977;28;20116;-51
2021/10/27 02:01:12;;;;;;;41.00;32.78;;;9.30;99.90;;;;;;5065003;28;20047;-52
2021/10/27 02:03:38;;;;;;;39.45;31.48;;;9.30;99.90;;;;;;5061451;28;20113;-53
2021/10/27 02:06:04;;;;;;;38.05;29.90;;;9.30;99.90;;;;;;5069354;28;20548;-51
2021/10/27 02:08:30;;;;;;;36.88;29.92;;;9.30;99.90;;;;;;5060429;28;20112;-56
2021/10/27 02:10:57;;;;;;;38.55;31.27;;;9.30;99.90;;;;;;5066800;28;20545;-55
2021/10/27 02:13:23;;;;;;;36.17;29.55;;;9.20;99.90;;;;;;5064302;28;20111;-53
2021/10/27 02:15:49;;;;;;;39.75;30.77;;;9.20;99.90;;;;;;5062091;28;20556;-53
2021/10/27 02:18:14;;;;;;;37.63;29.52;;;9.20;99.90;;;;;;5066835;28;20456;-51
2021/10/27 02:20:40;;;;;;;41.40;30.27;;;9.20;99.90;;;;;;5067688;28;20457;-50
2021/10/27 02:23:06;;;;;;;36.97;29.27;;;9.20;99.90;;;;;;5066491;28;20032;-58
2021/10/27 02:25:32;;;;;;;37.30;29.30;;;9.20;99.90;;;;;;5061901;28;20036;-51
2021/10/27 02:27:57;;;;;;;48.47;30.17;;;9.20;99.90;;;;;;5068459;28;20070;-51
2021/10/27 02:30:24;;;;;;;41.05;30.77;;;9.30;99.90;;;;;;5065808;28;20459;-51
2021/10/27 02:32:50;;;;;;;41.67;29.83;;;9.40;99.90;;;;;;5066349;28;20025;-53
2021/10/27 02:35:16;;;;;;;39.63;27.88;;;9.40;99.90;;;;;;5071716;28;20032;-54
2021/10/27 02:37:43;;;;;;;41.17;29.20;;;9.50;99.90;;;;;;5060953;28;20024;-51
2021/10/27 02:40:09;;;;;;;41.63;28.92;;;9.40;99.90;;;;;;5064839;28;20032;-52
2021/10/27 02:42:36;;;;;;;36.78;28.80;;;9.30;99.90;;;;;;5060766;28;20087;-51
2021/10/27 02:45:03;;;;;;;47.22;30.00;;;9.00;99.90;;;;;;5065825;28;20043;-54
2021/10/27 02:47:28;;;;;;;40.55;28.70;;;8.80;99.90;;;;;;5069175;28;20491;-53
2021/10/27 02:49:54;;;;;;;38.40;30.30;;;8.70;99.90;;;;;;5065457;28;20033;-55
2021/10/27 02:52:20;;;;;;;37.95;29.70;;;8.60;99.90;;;;;;5065760;28;20162;-51
2021/10/27 02:54:46;;;;;;;39.83;30.50;;;8.60;99.90;;;;;;5066282;28;20034;-51
2021/10/27 02:57:11;;;;;;;41.63;30.55;;;8.80;99.90;;;;;;5059991;28;20044;-54
2021/10/27 02:59:37;;;;;;;37.33;30.25;;;9.00;99.90;;;;;;5046904;28;20047;-55
2021/10/27 03:02:03;;;;;;;39.13;29.73;;;9.20;99.90;;;;;;5068587;28;20111;-52
2021/10/27 03:04:29;;;;;;;37.80;29.55;;;9.30;99.90;;;;;;5043750;28;20150;-55
2021/10/27 03:06:55;;;;;;;44.28;28.63;;;9.40;99.90;;;;;;5071173;28;20123;-51
2021/10/27 03:09:20;;;;;;;34.70;29.08;;;9.40;99.90;;;;;;5059281;28;20123;-56
2021/10/27 03:11:46;;;;;;;34.53;28.25;;;9.50;99.90;;;;;;5068299;28;20036;-50
2021/10/27 03:14:12;;;;;;;38.17;28.63;;;9.50;99.90;;;;;;5068120;28;20032;-54
2021/10/27 03:16:38;;;;;;;38.42;30.38;;;9.60;99.90;;;;;;5060351;28;20079;-54
2021/10/27 03:19:04;;;;;;;40.67;29.60;;;9.60;99.90;;;;;;5063973;28;20064;-54
2021/10/27 03:21:30;;;;;;;39.58;28.20;;;9.60;99.90;;;;;;5062988;28;20474;-51
2021/10/27 03:23:57;;;;;;;41.97;28.58;;;9.70;99.90;;;;;;5055790;28;20033;-51
2021/10/27 03:26:23;;;;;;;34.10;27.20;;;9.70;99.90;;;;;;5063742;28;20080;-52
2021/10/27 03:28:49;;;;;;;34.60;26.83;;;9.70;99.90;;;;;;5067377;28;20055;-54
2021/10/27 03:31:15;;;;;;;35.40;26.17;;;9.70;99.90;;;;;;5062764;28;20024;-54
2021/10/27 03:33:41;;;;;;;34.92;27.65;;;9.70;99.90;;;;;;5061868;28;20036;-56
2021/10/27 03:36:07;;;;;;;45.05;28.15;;;9.70;99.90;;;;;;5065811;28;20040;-51
2021/10/27 03:38:33;;;;;;;37.00;27.77;;;9.70;99.90;;;;;;5028761;28;20075;-56
2021/10/27 03:40:59;;;;;;;34.65;29.00;;;9.80;99.90;;;;;;5063548;28;20088;-52
2021/10/27 03:43:25;;;;;;;35.58;29.85;;;9.90;99.90;;;;;;5059803;28;20094;-53
2021/10/27 03:45:51;;;;;;;40.22;30.10;;;9.70;99.90;;;;;;5055351;28;20536;-51
2021/10/27 03:48:16;;;;;;;39.28;28.20;;;9.70;99.90;;;;;;5046443;28;20087;-51
2021/10/27 03:50:42;;;;;;;36.28;27.63;;;9.50;99.90;;;;;;5050205;28;20377;-48
2021/10/27 03:53:09;;;;;;;38.80;30.35;;;9.30;99.90;;;;;;5060155;28;20413;-54
2021/10/27 03:55:35;;;;;;;35.53;28.52;;;9.40;99.90;;;;;;5059525;28;20066;-52
2021/10/27 03:58:01;;;;;;;34.70;27.98;;;9.50;99.90;;;;;;5061335;28;20112;-52
2021/10/27 04:00:27;;;;;;;36.17;29.15;;;9.60;99.90;;;;;;5065839;28;20048;-52
2021/10/27 04:02:52;;;;;;;37.58;28.98;;;9.60;99.90;;;;;;5029856;28;20036;-49
2021/10/27 04:05:18;;;;;;;37.33;29.35;;;9.70;99.90;;;;;;5071656;28;20060;-54
2021/10/27 04:07:44;;;;;;;45.90;32.90;;;9.70;99.90;;;;;;5066059;28;20075;-54
2021/10/27 04:10:12;;;;;;;43.13;31.60;;;9.60;99.90;;;;;;5050345;28;20025;-54
2021/10/27 04:12:39;;;;;;;42.90;32.15;;;9.40;99.90;;;;;;5067833;28;20404;-50
2021/10/27 04:15:07;;;;;;;44.55;32.95;;;9.50;99.90;;;;;;5069281;28;20527;-53
2021/10/27 04:17:34;;;;;;;51.67;38.08;;;9.50;99.90;;;;;;5050041;28;20439;-54
2021/10/27 04:20:00;;;;;;;46.20;35.85;;;9.50;99.90;;;;;;5040775;28;20047;-53
2021/10/27 04:22:27;;;;;;;47.67;36.80;;;9.60;99.90;;;;;;5049160;28;20034;-57
2021/10/27 04:24:53;;;;;;;51.20;39.25;;;9.70;99.90;;;;;;5046820;28;20094;-52
2021/10/27 04:27:19;;;;;;;57.63;41.47;;;9.70;99.90;;;;;;5048716;28;20538;-55
2021/10/27 04:29:44;;;;;;;54.03;41.10;;;9.80;99.90;;;;;;5030442;28;20045;-57
2021/10/27 04:32:10;;;;;;;52.53;40.72;;;9.90;99.90;;;;;;5021107;28;20065;-55
2021/10/27 04:34:36;;;;;;;67.85;51.40;;;9.90;99.90;;;;;;5040032;28;20489;-49
2021/10/27 04:37:04;;;;;;;67.15;50.65;;;10.00;99.90;;;;;;5046262;28;20049;-56
2021/10/27 04:39:30;;;;;;;61.70;45.40;;;10.00;99.90;;;;;;5033493;28;20036;-53
2021/10/27 04:41:56;;;;;;;48.17;39.85;;;10.00;99.90;;;;;;5042109;28;20522;-52
2021/10/27 04:44:22;;;;;;;55.75;39.33;;;9.90;99.90;;;;;;5046054;28;20636;-53
2021/10/27 04:46:47;;;;;;;47.95;38.10;;;10.00;99.90;;;;;;5040871;28;20128;-52
2021/10/27 04:49:13;;;;;;;46.08;37.10;;;10.00;99.90;;;;;;5064567;28;20119;-50
2021/10/27 04:51:39;;;;;;;44.65;35.20;;;10.00;99.90;;;;;;5046836;28;20124;-53
2021/10/27 04:54:05;;;;;;;45.85;35.65;;;10.00;99.90;;;;;;5066115;28;20722;-55
2021/10/27 04:56:30;;;;;;;55.80;38.70;;;10.00;99.90;;;;;;5061204;28;20028;-49
2021/10/27 04:58:56;;;;;;;49.15;37.88;;;10.10;99.90;;;;;;5068262;28;20115;-50
2021/10/27 05:01:22;;;;;;;53.88;39.88;;;10.10;99.90;;;;;;5067304;28;20033;-55
2021/10/27 05:03:47;;;;;;;52.03;38.80;;;10.10;99.90;;;;;;5069835;28;20040;-52
2021/10/27 05:06:13;;;;;;;49.83;38.70;;;10.10;99.90;;;;;;5070344;28;20049;-55
2021/10/27 05:08:39;;;;;;;49.55;39.60;;;10.10;99.90;;;;;;5060004;28;20124;-56
2021/10/27 05:11:06;;;;;;;48.50;37.35;;;10.00;99.90;;;;;;5059487;28;20094;-52
2021/10/27 05:13:32;;;;;;;74.25;53.13;;;10.10;99.90;;;;;;5001393;28;20499;-55
2021/10/27 05:15:58;;;;;;;73.22;52.88;;;10.10;99.90;;;;;;5028220;28;20074;-52
2021/10/27 05:18:23;;;;;;;53.20;40.50;;;10.10;99.90;;;;;;5061153;28;20506;-50
2021/10/27 05:20:49;;;;;;;48.97;37.75;;;10.20;99.90;;;;;;5070104;28;20043;-53
2021/10/27 05:23:15;;;;;;;47.20;38.20;;;10.30;99.90;;;;;;5044249;28;20499;-55
2021/10/27 05:25:41;;;;;;;50.20;39.55;;;10.30;99.90;;;;;;5049323;28;20071;-54
2021/10/27 05:28:07;;;;;;;58.70;40.92;;;10.00;99.90;;;;;;5068747;28;20066;-54
2021/10/27 05:30:33;;;;;;;60.58;43.85;;;10.10;99.90;;;;;;5065907;28;20020;-52
2021/10/27 05:32:59;;;;;;;55.53;41.35;;;10.00;99.90;;;;;;5063949;28;20365;-53
2021/10/27 05:35:27;;;;;;;57.65;42.95;;;9.90;99.90;;;;;;5068817;28;20097;-52
2021/10/27 05:37:54;;;;;;;49.35;36.80;;;10.00;99.90;;;;;;5066507;28;20078;-54
2021/10/27 05:40:21;;;;;;;52.97;38.50;;;10.00;99.90;;;;;;5069298;28;20031;-53
2021/10/27 05:42:47;;;;;;;55.20;39.75;;;10.10;99.90;;;;;;5062600;28;20116;-57
2021/10/27 05:45:14;;;;;;;60.53;45.45;;;10.20;99.90;;;;;;5062061;28;20045;-49
2021/10/27 05:47:45;;;;;;;58.70;42.50;;;10.40;99.90;;;;;;5072170;28;20468;-53
2021/10/27 05:55:29;;;;;;;49.85;38.38;;;10.60;99.90;;;;;;5063568;28;20102;-51
2021/10/27 05:57:55;;;;;;;46.97;37.58;;;10.60;99.90;;;;;;5066009;28;20033;-55
2021/10/27 06:00:21;;;;;;;60.45;38.67;;;10.60;99.90;;;;;;5065384;28;20037;-51
2021/10/27 06:02:47;;;;;;;45.58;33.78;;;10.60;99.90;;;;;;5084318;28;20098;-56
2021/10/27 06:05:12;;;;;;;47.60;36.20;;;10.70;99.90;;;;;;5063416;28;20676;-53
2021/10/27 06:07:38;;;;;;;44.88;33.17;;;10.70;99.90;;;;;;5019809;28;20063;-55
2021/10/27 06:10:05;;;;;;;205.60;131.38;;;10.80;99.90;;;;;;5064483;28;20020;-54
2021/10/27 06:12:31;;;;;;;50.03;35.45;;;10.80;99.90;;;;;;5067310;28;20028;-53
2021/10/27 06:14:57;;;;;;;44.83;32.58;;;10.90;99.90;;;;;;5045542;28;20490;-52
2021/10/27 06:17:23;;;;;;;49.00;33.70;;;10.90;99.90;;;;;;5060454;28;20054;-55
2021/10/27 06:19:52;;;;;;;44.95;35.00;;;11.00;99.90;;;;;;5049195;28;20055;-59
2021/10/27 06:22:19;;;;;;;48.42;34.55;;;11.00;99.90;;;;;;5068274;28;20643;-56
2021/10/27 06:24:45;;;;;;;45.40;36.42;;;11.00;99.90;;;;;;5070490;28;20075;-54
2021/10/27 06:27:11;;;;;;;60.63;37.90;;;11.00;99.90;;;;;;5067077;28;20142;-53
2021/10/27 06:29:44;;;;;;;48.67;34.97;;;11.00;99.90;;;;;;5053738;28;20037;-57
2021/10/27 06:35:07;;;;;;;47.53;35.45;;;10.90;99.90;;;;;;5060828;28;20031;-58
2021/10/27 06:37:48;;;;;;;54.58;37.63;;;10.60;99.90;;;;;;5067090;28;20032;-60
2021/10/27 06:46:26;;;;;;;67.63;37.33;;;10.90;99.90;;;;;;5031024;28;20044;-55
2021/10/27 06:48:52;;;;;;;72.28;37.00;;;10.80;99.90;;;;;;5022382;28;20553;-52
2021/10/27 06:51:18;;;;;;;60.58;37.97;;;10.80;99.90;;;;;;5008303;28;20041;-50
2021/10/27 06:53:44;;;;;;;46.97;34.33;;;10.60;99.90;;;;;;5036756;28;20497;-52
2021/10/27 06:56:13;;;;;;;44.60;33.00;;;10.70;99.90;;;;;;5018758;28;20036;-51
2021/10/27 07:01:22;;;;;;;48.05;34.85;;;10.70;99.90;;;;;;5034835;28;20112;-52
2021/10/27 07:17:30;;;;;;;50.80;35.28;;;10.10;99.90;;;;;;5019757;28;20040;-53
2021/10/27 07:19:56;;;;;;;52.50;36.63;;;10.10;99.90;;;;;;5025701;28;20082;-52
2021/10/27 07:22:22;;;;;;;56.85;36.47;;;10.00;99.90;;;;;;5011618;28;20068;-54
2021/10/27 07:24:48;;;;;;;55.58;35.03;;;10.10;99.90;;;;;;4980855;28;20552;-49
2021/10/27 07:27:14;;;;;;;59.20;35.60;;;10.00;99.90;;;;;;5027788;28;20037;-53
2021/10/27 07:29:45;;;;;;;47.33;31.67;;;10.30;99.90;;;;;;5013789;28;20517;-58
2021/10/27 07:32:14;;;;;;;42.30;31.27;;;10.20;99.90;;;;;;5029933;28;20041;-54
2021/10/27 07:34:48;;;;;;;48.05;31.48;;;10.20;99.90;;;;;;5027885;28;20079;-51
2021/10/27 07:42:24;;;;;;;43.65;30.95;;;10.80;99.90;;;;;;5022029;28;20038;-54
2021/10/27 07:44:50;;;;;;;50.72;32.95;;;10.70;99.90;;;;;;5031948;28;20025;-52
2021/10/27 07:47:17;;;;;;;50.50;34.28;;;10.50;99.90;;;;;;5032948;28;20037;-55
2021/10/27 07:49:43;;;;;;;53.28;33.42;;;10.70;99.90;;;;;;5046859;28;20045;-55
2021/10/27 07:52:09;;;;;;;46.88;32.20;;;10.90;99.90;;;;;;5067762;28;20116;-54
2021/10/27 07:54:35;;;;;;;43.40;30.38;;;11.40;99.90;;;;;;5047099;28;20107;-53
2021/10/27 07:57:02;;;;;;;45.70;29.70;;;11.80;99.90;;;;;;5063747;28;20544;-55
2021/10/27 07:59:29;;;;;;;48.78;29.90;;;12.30;99.90;;;;;;5064182;28;20021;-49
2021/10/27 08:01:55;;;;;;;44.67;29.58;;;13.10;99.90;;;;;;5063842;28;20032;-53
2021/10/27 08:04:21;;;;;;;44.53;28.08;;;14.00;99.90;;;;;;5068327;28;20037;-55
2021/10/27 08:06:47;;;;;;;37.75;28.40;;;14.90;99.90;;;;;;5067983;28;20037;-52
2021/10/27 08:09:14;;;;;;;36.00;23.08;;;15.50;99.90;;;;;;5033193;28;20033;-58
2021/10/27 08:11:41;;;;;;;41.85;28.15;;;15.30;99.90;;;;;;5036591;28;20154;-56
2021/10/27 08:14:08;;;;;;;38.33;27.35;;;16.20;99.90;;;;;;5070010;28;20514;-56
2021/10/27 08:16:33;;;;;;;30.15;25.58;;;16.80;99.90;;;;;;5069667;28;20618;-54
2021/10/27 08:19:00;;;;;;;37.20;27.08;;;16.80;99.90;;;;;;5025394;28;20068;-52
2021/10/27 08:21:26;;;;;;;30.15;24.05;;;17.40;99.90;;;;;;5078137;28;20040;-56
2021/10/27 08:23:53;;;;;;;30.95;26.83;;;16.80;99.10;;;;;;5073423;28;20545;-56
2021/10/27 08:26:23;;;;;;;25.23;20.65;;;16.90;99.90;;;;;;5064837;28;20086;-50
2021/10/27 08:28:55;;;;;;;29.48;26.27;;;16.90;99.20;;;;;;5066720;28;20036;-52
2021/10/27 08:36:24;;;;;;;29.55;23.48;;;18.70;96.60;;;;;;5068150;28;20063;-49
2021/10/27 08:38:50;;;;;;;30.98;24.30;;;18.90;96.10;;;;;;5038564;28;20066;-48
2021/10/27 08:41:17;;;;;;;30.38;24.23;;;19.20;96.10;;;;;;5072342;28;20150;-49
2021/10/27 08:43:43;;;;;;;31.80;22.25;;;19.90;94.70;;;;;;5072892;28;20033;-53
2021/10/27 08:46:11;;;;;;;25.75;22.63;;;18.60;94.30;;;;;;5061666;28;20044;-51
2021/10/27 08:48:38;;;;;;;26.38;22.70;;;18.10;95.20;;;;;;5062561;28;20025;-52
2021/10/27 08:51:05;;;;;;;25.52;22.27;;;18.30;95.70;;;;;;5051928;28;20040;-50
2021/10/27 08:53:33;;;;;;;32.95;24.65;;;17.90;95.60;;;;;;5048389;28;20052;-51
2021/10/27 08:56:02;;;;;;;28.30;23.52;;;18.20;95.30;;;;;;5046725;28;20107;-49
2021/10/27 08:58:33;;;;;;;27.38;23.80;;;18.20;94.90;;;;;;5052717;28;20378;-52
2021/10/27 09:04:07;;;;;;;31.30;25.33;;;17.70;95.60;;;;;;5040713;28;20076;-52
2021/10/27 09:43:03;;;;;;;40.15;31.58;;;21.00;90.90;;;;;;5027354;28;20126;-52
2021/10/27 10:05:21;;;;;;;35.50;26.80;;;20.60;89.30;;;;;;5063796;28;20032;-51
2021/10/27 10:07:48;;;;;;;28.75;25.83;;;20.40;90.40;;;;;;5069453;28;20118;-47
2021/10/27 10:10:15;;;;;;;26.02;23.40;;;19.80;90.80;;;;;;5059959;28;20027;-51
2021/10/27 10:12:44;;;;;;;28.70;25.60;;;20.70;90.10;;;;;;5036185;28;20504;-50
2021/10/27 10:15:11;;;;;;;27.63;24.75;;;20.70;89.90;;;;;;5042777;28;20503;-51
2021/10/27 10:17:45;;;;;;;30.65;27.70;;;21.40;89.50;;;;;;5023646;28;20033;-48
2021/10/27 10:20:13;;;;;;;29.35;25.90;;;22.00;87.40;;;;;;5044143;28;20025;-49
2021/10/27 10:22:40;;;;;;;31.23;26.67;;;21.60;87.70;;;;;;5026136;28;20060;-50
2021/10/27 10:25:32;;;;;;;31.52;26.92;;;22.60;85.90;;;;;;5043211;28;20694;-51
2021/10/27 10:28:16;;;;;;;28.30;22.25;;;21.70;85.60;;;;;;5042705;28;20053;-52
2021/10/27 10:30:52;;;;;;;29.30;26.38;;;21.40;85.20;;;;;;5037660;28;20164;-52
2021/10/27 10:33:20;;;;;;;30.35;25.40;;;22.20;84.20;;;;;;5044457;28;20086;-51
2021/10/27 10:36:06;;;;;;;33.20;26.10;;;22.70;82.90;;;;;;4998798;28;20386;-54
2021/10/27 10:56:08;;;;;;;26.40;22.83;;;22.90;79.20;;;;;;5060418;28;20515;-53
2021/10/27 11:42:38;;;;;;;18.20;15.68;;;21.80;79.90;;;;;;4950080;28;20051;-52
2021/10/27 11:45:23;;;;;;;20.23;16.52;;;22.00;78.90;;;;;;4949875;28;20042;-50
2021/10/27 11:47:53;;;;;;;18.05;15.18;;;21.70;79.00;;;;;;4983956;28;20054;-51
2021/10/27 11:50:21;;;;;;;18.90;15.48;;;22.50;77.60;;;;;;4989674;28;20069;-52
2021/10/27 11:52:50;;;;;;;17.00;14.60;;;21.90;88.70;;;;;;4989228;28;20577;-53
2021/10/27 11:55:17;;;;;;;19.38;14.15;;;22.40;76.90;;;;;;4989168;28;20069;-52
2021/10/27 11:57:46;;;;;;;19.48;14.55;;;22.50;76.70;;;;;;4989998;28;20078;-50
2021/10/27 12:05:33;;;;;;;18.95;15.93;;;21.20;81.00;;;;;;5041793;28;20103;-52
2021/10/27 12:19:04;;;;;;;17.70;15.77;;;;;;;;;;5066247;28;20501;-51
2021/10/27 12:21:30;;;;;;;21.92;16.00;;;21.90;77.20;;;;;;5046092;28;20546;-52
2021/10/27 12:23:56;;;;;;;26.88;16.30;;;22.10;78.50;;;;;;5066176;28;20037;-51
2021/10/27 12:26:24;;;;;;;20.50;16.92;;;21.70;78.30;;;;;;5063235;28;20036;-52
2021/10/27 12:29:15;;;;;;;20.67;17.25;;;21.10;79.50;;;;;;5072408;28;20086;-54
2021/10/27 12:31:42;;;;;;;20.20;16.50;;;20.70;95.20;;;;;;5068365;28;20041;-52
2021/10/27 12:34:25;;;;;;;34.90;17.73;;;20.30;93.80;;;;;;5072267;28;20461;-53
2021/10/27 12:36:53;;;;;;;25.15;16.50;;;20.90;93.50;;;;;;5048522;28;20041;-51
2021/10/27 12:39:30;;;;;;;22.83;17.25;;;21.20;92.90;;;;;;5061725;28;20629;-56
2021/10/27 12:42:07;;;;;;;23.25;17.10;;;20.90;93.10;;;;;;5053166;28;20036;-53
2021/10/27 12:44:43;;;;;;;20.42;16.25;;;20.50;92.10;;;;;;5065834;28;20029;-51
2021/10/27 12:47:12;;;;;;;20.33;15.82;;;20.80;80.50;;;;;;5068526;28;20044;-53
2021/10/27 12:49:40;;;;;;;21.20;15.90;;;20.80;91.20;;;;;;5069648;28;20103;-51
2021/10/27 12:52:29;;;;;;;17.35;14.98;;;20.90;91.90;;;;;;5074988;28;20029;-50
2021/10/27 12:55:10;;;;;;;22.10;15.52;;;21.20;90.90;;;;;;5075141;28;20056;-52
2021/10/27 12:58:06;;;;;;;20.48;14.45;;;21.20;90.40;;;;;;5074319;28;20028;-50
2021/10/27 13:03:48;;;;;;;19.45;14.38;;;21.30;90.20;;;;;;5074464;28;20039;-50
2021/10/27 13:12:12;;;;;;;21.38;14.45;;;;;;;;;;5073362;28;20021;-54
2021/10/27 13:22:30;;;;;;;18.50;14.68;;;20.10;94.00;;;;;;5073322;28;20063;-54
2021/10/27 13:33:11;;;;;;;18.38;14.80;;;20.10;92.80;;;;;;5038432;28;20030;-54
2021/10/27 13:35:37;;;;;;;18.35;15.57;;;20.10;93.00;;;;;;4990790;28;20033;-52
2021/10/27 13:38:04;;;;;;;18.02;16.00;;;19.70;91.60;;;;;;5023042;28;20029;-52
2021/10/27 13:40:35;;;;;;;18.40;15.38;;;19.20;92.60;;;;;;5040195;28;20075;-51
2021/10/27 13:59:19;;;;;;;22.98;17.90;;;18.00;96.10;;;;;;5012785;28;20108;-52
2021/10/27 15:21:07;;;;;;;54.78;32.50;;;15.90;90.90;;;;;;5068757;28;20491;-54
2021/10/27 15:29:27;;;;;;;51.83;31.20;;;15.70;90.90;;;;;;5069764;28;20032;-53
2021/10/27 15:42:39;;;;;;;60.40;35.05;;;15.40;92.00;;;;;;5018089;28;20573;-52
2021/10/27 15:50:52;;;;;;;50.95;28.60;;;15.20;92.60;;;;;;5005039;28;20100;-53
2021/10/27 15:53:18;;;;;;;51.60;32.17;;;15.20;92.20;;;;;;5018264;28;20490;-57
2021/10/27 15:55:44;;;;;;;46.58;30.17;;;15.00;93.00;;;;;;4985865;28;20439;-55
2021/10/27 15:58:10;;;;;;;46.80;29.50;;;14.90;93.10;;;;;;5019142;28;20116;-53
2021/10/27 16:00:40;;;;;;;46.08;31.83;;;14.80;93.00;;;;;;4988417;28;20073;-56
2021/10/27 16:03:07;;;;;;;43.95;31.65;;;14.80;93.10;;;;;;5022930;28;20156;-51
2021/10/27 16:05:39;;;;;;;49.05;29.17;;;14.70;93.00;;;;;;5022716;28;20153;-51
2021/10/27 16:08:07;;;;;;;41.70;29.00;;;14.70;93.10;;;;;;5022562;28;20065;-53
2021/10/27 16:10:35;;;;;;;51.45;28.55;;;14.70;93.20;;;;;;5023309;28;20044;-56
2021/10/27 16:13:02;;;;;;;56.95;31.25;;;14.60;93.70;;;;;;5073296;28;20086;-51
2021/10/27 16:15:37;;;;;;;59.70;32.47;;;14.50;93.60;;;;;;5074582;28;20056;-53
2021/10/27 16:18:04;;;;;;;51.75;30.10;;;14.50;93.80;;;;;;5073388;28;20029;-53
2021/10/27 16:20:30;;;;;;;47.50;29.15;;;14.40;94.00;;;;;;5074576;28;20025;-54
2021/10/27 16:22:56;;;;;;;43.78;28.80;;;14.40;94.10;;;;;;5072589;28;20023;-52
2021/10/27 16:25:22;;;;;;;51.10;27.92;;;14.30;94.10;;;;;;5074623;28;20375;-51
2021/10/27 16:27:48;;;;;;;43.33;27.42;;;14.20;94.30;;;;;;5038232;28;20135;-52
2021/10/27 16:30:15;;;;;;;42.00;27.52;;;14.20;94.60;;;;;;5074407;28;20033;-54
2021/10/27 16:32:41;;;;;;;41.60;27.15;;;14.10;94.50;;;;;;5074335;28;20107;-55
2021/10/27 16:35:07;;;;;;;47.33;26.33;;;14.00;94.80;;;;;;5073651;28;20032;-55
2021/10/27 16:37:35;;;;;;;40.33;25.73;;;13.80;95.20;;;;;;5074139;28;20119;-52
2021/10/27 16:40:02;;;;;;;40.00;25.67;;;13.80;95.60;;;;;;5073701;28;20021;-55
2021/10/27 16:42:27;;;;;;;39.65;24.77;;;13.70;95.50;;;;;;5071159;28;20032;-55
2021/10/27 16:44:54;;;;;;;52.35;25.63;;;13.60;95.70;;;;;;5048093;28;20392;-50
2021/10/27 16:47:20;;;;;;;41.38;26.05;;;13.60;95.80;;;;;;5073481;28;20036;-55
2021/10/27 16:49:45;;;;;;;45.15;25.55;;;13.60;96.00;;;;;;5072137;28;20039;-55
2021/10/27 16:52:12;;;;;;;47.15;27.15;;;13.50;96.00;;;;;;5043202;28;20390;-48
2021/10/27 16:54:37;;;;;;;41.50;28.13;;;13.40;96.20;;;;;;5072785;28;20024;-51
2021/10/27 16:57:03;;;;;;;47.13;25.95;;;13.30;96.20;;;;;;5072955;28;20071;-45
2021/10/27 16:59:29;;;;;;;39.47;28.45;;;13.30;96.20;;;;;;5073908;28;20645;-49
2021/10/27 17:01:55;;;;;;;40.03;25.95;;;13.30;96.30;;;;;;5072319;28;20490;-59
2021/10/27 17:04:21;;;;;;;43.10;25.80;;;13.30;96.20;;;;;;5072473;28;20044;-52
2021/10/27 17:06:48;;;;;;;42.85;26.92;;;13.20;96.40;;;;;;5069149;28;20044;-47
2021/10/27 17:09:13;;;;;;;41.03;26.40;;;13.30;96.40;;;;;;5073170;28;20087;-46
2021/10/27 17:11:40;;;;;;;34.53;25.77;;;13.30;96.40;;;;;;5063715;28;20036;-44
2021/10/27 17:14:05;;;;;;;45.50;31.80;;;13.30;96.60;;;;;;5072868;28;20021;-46
2021/10/27 17:16:33;;;;;;;40.65;27.05;;;13.20;97.00;;;;;;5072802;28;20045;-46
2021/10/27 17:18:59;;;;;;;39.92;27.77;;;13.10;97.20;;;;;;5070430;28;20032;-49
2021/10/27 17:21:27;;;;;;;39.28;26.38;;;13.20;97.20;;;;;;5070638;28;20036;-50
2021/10/27 17:23:55;;;;;;;35.33;26.38;;;13.10;97.60;;;;;;5053993;28;20048;-51
2021/10/27 17:26:21;;;;;;;45.45;29.42;;;13.10;97.50;;;;;;5072131;28;20036;-50
2021/10/27 17:28:46;;;;;;;37.97;26.42;;;13.10;97.60;;;;;;5073167;28;20349;-49
2021/10/27 17:31:12;;;;;;;82.18;49.00;;;13.00;97.60;;;;;;5073281;28;20020;-49
2021/10/27 17:33:38;;;;;;;373.65;188.18;;;12.90;97.50;;;;;;5073633;28;20094;-49
2021/10/27 17:36:09;;;;;;;265.92;129.65;;;12.90;97.80;;;;;;5073966;28;20393;-49
2021/10/27 17:38:35;;;;;;;283.38;129.95;;;12.80;98.10;;;;;;5073751;28;20058;-49
2021/10/27 17:41:02;;;;;;;395.55;193.85;;;12.70;98.10;;;;;;5073809;28;20078;-49
2021/10/27 17:43:27;;;;;;;1065.22;570.15;;;12.70;98.00;;;;;;5073763;28;20034;-48
2021/10/27 17:45:54;;;;;;;1066.20;598.97;;;12.70;98.40;;;;;;5054527;28;20036;-49
2021/10/27 17:48:35;;;;;;;693.90;371.50;;;12.60;98.70;;;;;;5053483;28;20502;-50
2021/10/27 17:58:43;;;;;;;383.92;161.77;;;12.40;99.90;;;;;;5073576;28;20050;-49
2021/10/27 18:01:12;;;;;;;496.52;221.52;;;12.20;99.90;;;;;;5051314;28;20064;-49